sensor_id;sensor_type;location;lat;lon;timestamp;temperature;humidity
6421;DHT22;3243;50.958;7.012;2023-05-09T00:09:44;14.70;99.90
6421;DHT22;3243;50.958;7.012;2023-05-09T00:14:38;14.60;99.90
6421;DHT22;3243;50.958;7.012;2023-05-09T00:26:55;14.40;99.90
6421;DHT22;3243;50.958;7.012;2023-05-09T00:29:21;14.40;99.90
6421;DHT22;3243;50.958;7.012;2023-05-09T00:34:15;14.40;99.90
6421;DHT22;3243;50.958;7.012;2023-05-09T00:46:31;14.50;99.90
6421;DHT22;3243;50.958;7.012;2023-05-09T00:48:58;14.60;99.90
6421;DHT22;3243;50.958;7.012;2023-05-09T00:53:52;14.60;99.90
6421;DHT22;3243;50.958;7.012;2023-05-09T00:56:18;14.70;99.90
6421;DHT22;3243;50.958;7.012;2023-05-09T00:58:45;14.70;99.90
6421;DHT22;3243;50.958;7.012;2023-05-09T01:01:12;14.70;99.90
6421;DHT22;3243;50.958;7.012;2023-05-09T01:03:40;14.70;99.90
6421;DHT22;3243;50.958;7.012;2023-05-09T01:06:12;14.70;99.90
6421;DHT22;3243;50.958;7.012;2023-05-09T01:08:49;14.80;99.90
6421;DHT22;3243;50.958;7.012;2023-05-09T01:14:28;14.90;99.90
6421;DHT22;3243;50.958;7.012;2023-05-09T01:17:10;14.90;99.90
6421;DHT22;3243;50.958;7.012;2023-05-09T01:22:41;14.90;99.90
6421;DHT22;3243;50.958;7.012;2023-05-09T01:28:09;14.90;99.90
6421;DHT22;3243;50.958;7.012;2023-05-09T01:30:41;14.90;99.90
6421;DHT22;3243;50.958;7.012;2023-05-09T01:33:10;15.00;99.90
6421;DHT22;3243;50.958;7.012;2023-05-09T01:35:41;15.00;99.90
6421;DHT22;3243;50.958;7.012;2023-05-09T01:38:13;15.00;99.90
6421;DHT22;3243;50.958;7.012;2023-05-09T01:40:41;15.00;99.90
6421;DHT22;3243;50.958;7.012;2023-05-09T01:43:10;15.00;99.90
6421;DHT22;3243;50.958;7.012;2023-05-09T01:45:38;15.00;99.90
6421;DHT22;3243;50.958;7.012;2023-05-09T01:48:06;15.10;99.90
6421;DHT22;3243;50.958;7.012;2023-05-09T01:50:35;15.10;99.90
6421;DHT22;3243;50.958;7.012;2023-05-09T01:53:03;15.10;99.90
6421;DHT22;3243;50.958;7.012;2023-05-09T01:55:33;15.20;99.90
6421;DHT22;3243;50.958;7.012;2023-05-09T01:58:03;15.20;99.90
6421;DHT22;3243;50.958;7.012;2023-05-09T02:00:34;15.10;99.90
6421;DHT22;3243;50.958;7.012;2023-05-09T02:03:03;15.10;99.90
6421;DHT22;3243;50.958;7.012;2023-05-09T02:05:31;15.20;99.90
6421;DHT22;3243;50.958;7.012;2023-05-09T02:10:29;15.20;99.90
6421;DHT22;3243;50.958;7.012;2023-05-09T02:12:56;15.20;99.90
6421;DHT22;3243;50.958;7.012;2023-05-09T02:15:23;15.20;99.90
6421;DHT22;3243;50.958;7.012;2023-05-09T02:20:18;15.10;99.90
6421;DHT22;3243;50.958;7.012;2023-05-09T02:27:46;15.20;99.90
6421;DHT22;3243;50.958;7.012;2023-05-09T02:30:22;15.20;99.90
6421;DHT22;3243;50.958;7.012;2023-05-09T02:32:54;15.20;99.90
6421;DHT22;3243;50.958;7.012;2023-05-09T02:35:23;15.20;99.90
6421;DHT22;3243;50.958;7.012;2023-05-09T02:37:51;15.20;99.90
6421;DHT22;3243;50.958;7.012;2023-05-09T02:40:19;15.20;99.90
6421;DHT22;3243;50.958;7.012;2023-05-09T02:45:14;15.20;99.90
6421;DHT22;3243;50.958;7.012;2023-05-09T02:50:09;15.20;99.90
6421;DHT22;3243;50.958;7.012;2023-05-09T02:55:03;15.10;99.90
6421;DHT22;3243;50.958;7.012;2023-05-09T02:59:57;15.10;99.90
6421;DHT22;3243;50.958;7.012;2023-05-09T03:09:46;15.00;99.90
6421;DHT22;3243;50.958;7.012;2023-05-09T03:24:28;15.00;99.90
6421;DHT22;3243;50.958;7.012;2023-05-09T03:34:16;15.00;99.90
6421;DHT22;3243;50.958;7.012;2023-05-09T03:36:43;15.00;99.90
6421;DHT22;3243;50.958;7.012;2023-05-09T03:44:04;15.00;99.90
6421;DHT22;3243;50.958;7.012;2023-05-09T03:53:53;15.00;99.90
6421;DHT22;3243;50.958;7.012;2023-05-09T03:56:20;15.10;99.90
6421;DHT22;3243;50.958;7.012;2023-05-09T04:11:03;14.90;99.90
6421;DHT22;3243;50.958;7.012;2023-05-09T04:15:58;15.00;99.90
6421;DHT22;3243;50.958;7.012;2023-05-09T04:18:25;15.00;99.90
6421;DHT22;3243;50.958;7.012;2023-05-09T04:20:51;15.00;99.90
6421;DHT22;3243;50.958;7.012;2023-05-09T04:33:07;15.00;99.90
6421;DHT22;3243;50.958;7.012;2023-05-09T04:38:01;15.00;99.90
6421;DHT22;3243;50.958;7.012;2023-05-09T04:40:28;15.00;99.90
6421;DHT22;3243;50.958;7.012;2023-05-09T04:50:17;15.10;99.90
6421;DHT22;3243;50.958;7.012;2023-05-09T04:55:11;15.10;99.90
6421;DHT22;3243;50.958;7.012;2023-05-09T04:57:38;15.10;99.90
6421;DHT22;3243;50.958;7.012;2023-05-09T05:19:59;15.60;99.90
6421;DHT22;3243;50.958;7.012;2023-05-09T05:22:26;15.70;99.90
6421;DHT22;3243;50.958;7.012;2023-05-09T05:24:53;15.80;99.90
6421;DHT22;3243;50.958;7.012;2023-05-09T05:27:20;15.90;99.90
6421;DHT22;3243;50.958;7.012;2023-05-09T05:29:46;16.00;99.90
6421;DHT22;3243;50.958;7.012;2023-05-09T05:32:13;16.20;99.90
6421;DHT22;3243;50.958;7.012;2023-05-09T05:34:40;16.40;99.90
6421;DHT22;3243;50.958;7.012;2023-05-09T05:37:06;16.60;99.90
6421;DHT22;3243;50.958;7.012;2023-05-09T05:39:33;16.80;99.90
6421;DHT22;3243;50.958;7.012;2023-05-09T05:44:27;16.90;99.90
6421;DHT22;3243;50.958;7.012;2023-05-09T05:46:53;16.90;99.90
6421;DHT22;3243;50.958;7.012;2023-05-09T05:49:20;17.00;99.90
6421;DHT22;3243;50.958;7.012;2023-05-09T05:51:47;17.10;99.90
6421;DHT22;3243;50.958;7.012;2023-05-09T05:54:14;17.10;99.90
6421;DHT22;3243;50.958;7.012;2023-05-09T05:56:40;17.10;99.90
6421;DHT22;3243;50.958;7.012;2023-05-09T05:59:07;17.00;99.90
6421;DHT22;3243;50.958;7.012;2023-05-09T06:01:36;17.00;99.90
6421;DHT22;3243;50.958;7.012;2023-05-09T06:04:03;17.00;99.90
6421;DHT22;3243;50.958;7.012;2023-05-09T06:06:29;17.10;99.90
6421;DHT22;3243;50.958;7.012;2023-05-09T06:08:56;17.20;99.90
6421;DHT22;3243;50.958;7.012;2023-05-09T06:11:23;17.20;99.90
6421;DHT22;3243;50.958;7.012;2023-05-09T06:13:50;17.50;99.90
6421;DHT22;3243;50.958;7.012;2023-05-09T06:18:46;17.90;99.90
6421;DHT22;3243;50.958;7.012;2023-05-09T06:21:13;18.40;99.90
6421;DHT22;3243;50.958;7.012;2023-05-09T06:23:40;19.40;99.90
6421;DHT22;3243;50.958;7.012;2023-05-09T06:26:26;19.40;99.90
6421;DHT22;3243;50.958;7.012;2023-05-09T06:28:53;20.20;99.90
6421;DHT22;3243;50.958;7.012;2023-05-09T06:31:20;20.80;99.90
6421;DHT22;3243;50.958;7.012;2023-05-09T06:33:48;21.10;99.90
6421;DHT22;3243;50.958;7.012;2023-05-09T06:36:15;21.30;99.90
6421;DHT22;3243;50.958;7.012;2023-05-09T06:38:41;21.30;99.90
6421;DHT22;3243;50.958;7.012;2023-05-09T06:41:08;21.00;99.90
6421;DHT22;3243;50.958;7.012;2023-05-09T06:43:35;20.60;99.90
6421;DHT22;3243;50.958;7.012;2023-05-09T06:46:02;20.20;99.90
6421;DHT22;3243;50.958;7.012;2023-05-09T06:48:29;20.00;99.90
6421;DHT22;3243;50.958;7.012;2023-05-09T06:50:55;19.90;99.90
6421;DHT22;3243;50.958;7.012;2023-05-09T06:53:22;19.90;99.90
6421;DHT22;3243;50.958;7.012;2023-05-09T06:55:49;19.90;99.90
6421;DHT22;3243;50.958;7.012;2023-05-09T06:58:15;19.90;99.90
6421;DHT22;3243;50.958;7.012;2023-05-09T07:00:42;20.20;99.90
6421;DHT22;3243;50.958;7.012;2023-05-09T07:03:09;20.30;99.90
6421;DHT22;3243;50.958;7.012;2023-05-09T07:05:37;20.60;99.90
6421;DHT22;3243;50.958;7.012;2023-05-09T07:08:04;20.70;99.90
6421;DHT22;3243;50.958;7.012;2023-05-09T07:10:31;20.70;99.90
6421;DHT22;3243;50.958;7.012;2023-05-09T07:12:57;20.50;99.90
6421;DHT22;3243;50.958;7.012;2023-05-09T07:15:24;20.40;99.90
6421;DHT22;3243;50.958;7.012;2023-05-09T07:18:07;20.50;99.90
6421;DHT22;3243;50.958;7.012;2023-05-09T07:20:34;20.30;99.90
6421;DHT22;3243;50.958;7.012;2023-05-09T07:23:02;20.30;99.90
6421;DHT22;3243;50.958;7.012;2023-05-09T07:25:29;20.40;99.90
6421;DHT22;3243;50.958;7.012;2023-05-09T07:27:56;20.70;99.90
6421;DHT22;3243;50.958;7.012;2023-05-09T07:30:23;21.00;99.90
6421;DHT22;3243;50.958;7.012;2023-05-09T07:32:50;21.00;99.90
6421;DHT22;3243;50.958;7.012;2023-05-09T07:35:18;21.10;99.90
6421;DHT22;3243;50.958;7.012;2023-05-09T07:37:45;21.10;99.90
6421;DHT22;3243;50.958;7.012;2023-05-09T07:40:12;21.10;99.90
6421;DHT22;3243;50.958;7.012;2023-05-09T07:42:39;21.30;99.90
6421;DHT22;3243;50.958;7.012;2023-05-09T07:45:06;21.30;99.90
6421;DHT22;3243;50.958;7.012;2023-05-09T07:47:33;21.30;99.90
6421;DHT22;3243;50.958;7.012;2023-05-09T07:50:00;21.40;99.90
6421;DHT22;3243;50.958;7.012;2023-05-09T07:52:26;21.50;99.90
6421;DHT22;3243;50.958;7.012;2023-05-09T07:54:53;21.60;99.90
6421;DHT22;3243;50.958;7.012;2023-05-09T07:57:20;21.80;99.90
6421;DHT22;3243;50.958;7.012;2023-05-09T07:59:47;21.90;99.90
6421;DHT22;3243;50.958;7.012;2023-05-09T08:02:13;22.00;99.90
6421;DHT22;3243;50.958;7.012;2023-05-09T08:04:40;21.90;99.90
6421;DHT22;3243;50.958;7.012;2023-05-09T08:07:07;21.90;99.90
6421;DHT22;3243;50.958;7.012;2023-05-09T08:09:34;21.90;99.90
6421;DHT22;3243;50.958;7.012;2023-05-09T08:12:01;21.90;99.90
6421;DHT22;3243;50.958;7.012;2023-05-09T08:14:28;21.80;99.90
6421;DHT22;3243;50.958;7.012;2023-05-09T08:16:55;21.80;99.90
6421;DHT22;3243;50.958;7.012;2023-05-09T08:19:21;21.70;99.90
6421;DHT22;3243;50.958;7.012;2023-05-09T08:21:52;21.60;99.90
6421;DHT22;3243;50.958;7.012;2023-05-09T08:24:18;21.70;99.90
6421;DHT22;3243;50.958;7.012;2023-05-09T08:26:46;21.70;99.90
6421;DHT22;3243;50.958;7.012;2023-05-09T08:29:12;21.90;99.90
6421;DHT22;3243;50.958;7.012;2023-05-09T08:31:39;22.00;99.90
6421;DHT22;3243;50.958;7.012;2023-05-09T08:34:06;22.10;99.90
6421;DHT22;3243;50.958;7.012;2023-05-09T08:36:33;22.10;99.90
6421;DHT22;3243;50.958;7.012;2023-05-09T08:39:00;22.30;99.90
6421;DHT22;3243;50.958;7.012;2023-05-09T08:41:26;22.30;99.90
6421;DHT22;3243;50.958;7.012;2023-05-09T08:43:54;22.20;99.90
6421;DHT22;3243;50.958;7.012;2023-05-09T08:46:32;21.90;99.90
6421;DHT22;3243;50.958;7.012;2023-05-09T08:49:04;21.80;99.90
6421;DHT22;3243;50.958;7.012;2023-05-09T08:51:34;21.80;99.90
6421;DHT22;3243;50.958;7.012;2023-05-09T08:54:01;21.60;99.90
6421;DHT22;3243;50.958;7.012;2023-05-09T08:56:29;21.60;99.90
6421;DHT22;3243;50.958;7.012;2023-05-09T08:58:57;21.70;99.90
6421;DHT22;3243;50.958;7.012;2023-05-09T09:01:24;21.70;99.90
6421;DHT22;3243;50.958;7.012;2023-05-09T09:03:52;21.70;99.90
6421;DHT22;3243;50.958;7.012;2023-05-09T09:06:20;21.70;99.90
6421;DHT22;3243;50.958;7.012;2023-05-09T09:08:47;21.70;99.90
6421;DHT22;3243;50.958;7.012;2023-05-09T09:11:15;21.70;99.90
6421;DHT22;3243;50.958;7.012;2023-05-09T09:13:43;21.70;99.90
6421;DHT22;3243;50.958;7.012;2023-05-09T09:16:20;21.80;99.90
6421;DHT22;3243;50.958;7.012;2023-05-09T09:18:47;21.90;99.90
6421;DHT22;3243;50.958;7.012;2023-05-09T09:21:18;21.90;99.90
6421;DHT22;3243;50.958;7.012;2023-05-09T09:23:46;22.10;99.90
6421;DHT22;3243;50.958;7.012;2023-05-09T09:26:14;22.20;99.90
6421;DHT22;3243;50.958;7.012;2023-05-09T09:28:41;22.20;99.90
6421;DHT22;3243;50.958;7.012;2023-05-09T09:31:24;22.20;99.90
6421;DHT22;3243;50.958;7.012;2023-05-09T09:34:00;22.20;99.90
6421;DHT22;3243;50.958;7.012;2023-05-09T09:36:28;22.30;99.90
6421;DHT22;3243;50.958;7.012;2023-05-09T09:38:58;22.40;99.90
6421;DHT22;3243;50.958;7.012;2023-05-09T09:41:36;22.60;99.90
6421;DHT22;3243;50.958;7.012;2023-05-09T09:44:14;22.80;99.90
6421;DHT22;3243;50.958;7.012;2023-05-09T09:46:48;22.80;99.90
6421;DHT22;3243;50.958;7.012;2023-05-09T09:49:23;22.80;99.90
6421;DHT22;3243;50.958;7.012;2023-05-09T09:51:57;22.80;99.90
6421;DHT22;3243;50.958;7.012;2023-05-09T09:54:27;22.90;99.90
6421;DHT22;3243;50.958;7.012;2023-05-09T09:56:54;23.10;99.90
6421;DHT22;3243;50.958;7.012;2023-05-09T09:59:24;23.30;99.90
6421;DHT22;3243;50.958;7.012;2023-05-09T10:01:55;23.30;99.90
6421;DHT22;3243;50.958;7.012;2023-05-09T10:04:22;23.30;99.90
6421;DHT22;3243;50.958;7.012;2023-05-09T10:06:54;23.40;99.90
6421;DHT22;3243;50.958;7.012;2023-05-09T10:09:22;23.50;99.90
6421;DHT22;3243;50.958;7.012;2023-05-09T10:11:51;23.30;99.90
6421;DHT22;3243;50.958;7.012;2023-05-09T10:14:23;23.50;99.90
6421;DHT22;3243;50.958;7.012;2023-05-09T10:16:53;23.60;99.90
6421;DHT22;3243;50.958;7.012;2023-05-09T10:19:21;23.60;99.90
6421;DHT22;3243;50.958;7.012;2023-05-09T10:21:50;23.70;99.90
6421;DHT22;3243;50.958;7.012;2023-05-09T10:26:58;23.80;99.90
6421;DHT22;3243;50.958;7.012;2023-05-09T10:29:26;23.70;99.90
6421;DHT22;3243;50.958;7.012;2023-05-09T10:31:58;23.80;99.90
6421;DHT22;3243;50.958;7.012;2023-05-09T10:34:27;23.70;99.90
6421;DHT22;3243;50.958;7.012;2023-05-09T10:36:57;23.70;99.90
6421;DHT22;3243;50.958;7.012;2023-05-09T10:39:26;23.60;99.90
6421;DHT22;3243;50.958;7.012;2023-05-09T10:41:54;23.50;99.90
6421;DHT22;3243;50.958;7.012;2023-05-09T10:44:22;23.50;99.90
6421;DHT22;3243;50.958;7.012;2023-05-09T10:46:50;23.50;99.90
6421;DHT22;3243;50.958;7.012;2023-05-09T10:49:18;23.50;99.90
6421;DHT22;3243;50.958;7.012;2023-05-09T10:51:48;23.70;99.90
6421;DHT22;3243;50.958;7.012;2023-05-09T10:54:29;23.90;99.90
6421;DHT22;3243;50.958;7.012;2023-05-09T10:56:59;24.00;99.90
6421;DHT22;3243;50.958;7.012;2023-05-09T10:59:38;24.20;99.90
6421;DHT22;3243;50.958;7.012;2023-05-09T11:02:11;24.20;99.90
6421;DHT22;3243;50.958;7.012;2023-05-09T11:04:39;24.20;99.90
6421;DHT22;3243;50.958;7.012;2023-05-09T11:09:52;24.10;99.90
6421;DHT22;3243;50.958;7.012;2023-05-09T11:15:06;24.00;99.90
6421;DHT22;3243;50.958;7.012;2023-05-09T11:17:37;24.20;99.90
6421;DHT22;3243;50.958;7.012;2023-05-09T11:20:05;24.30;99.90
6421;DHT22;3243;50.958;7.012;2023-05-09T11:22:43;24.40;99.90
6421;DHT22;3243;50.958;7.012;2023-05-09T11:25:11;24.60;99.90
6421;DHT22;3243;50.958;7.012;2023-05-09T11:27:49;24.50;99.90
6421;DHT22;3243;50.958;7.012;2023-05-09T11:30:18;24.80;99.90
6421;DHT22;3243;50.958;7.012;2023-05-09T11:32:53;24.80;99.90
6421;DHT22;3243;50.958;7.012;2023-05-09T11:35:22;24.80;99.90
6421;DHT22;3243;50.958;7.012;2023-05-09T11:40:18;24.80;99.90
6421;DHT22;3243;50.958;7.012;2023-05-09T11:42:47;24.80;99.90
6421;DHT22;3243;50.958;7.012;2023-05-09T11:45:15;24.80;99.90
6421;DHT22;3243;50.958;7.012;2023-05-09T11:47:44;24.70;99.90
6421;DHT22;3243;50.958;7.012;2023-05-09T11:50:13;24.70;99.90
6421;DHT22;3243;50.958;7.012;2023-05-09T11:55:09;24.40;99.90
6421;DHT22;3243;50.958;7.012;2023-05-09T11:57:49;24.20;99.90
6421;DHT22;3243;50.958;7.012;2023-05-09T12:00:18;24.00;99.90
6421;DHT22;3243;50.958;7.012;2023-05-09T12:02:46;23.70;99.90
6421;DHT22;3243;50.958;7.012;2023-05-09T12:05:16;23.50;99.90
6421;DHT22;3243;50.958;7.012;2023-05-09T12:07:45;23.40;99.90
6421;DHT22;3243;50.958;7.012;2023-05-09T12:10:14;23.40;99.90
6421;DHT22;3243;50.958;7.012;2023-05-09T12:12:43;23.30;99.90
6421;DHT22;3243;50.958;7.012;2023-05-09T12:15:10;23.00;99.90
6421;DHT22;3243;50.958;7.012;2023-05-09T12:17:40;22.90;99.90
6421;DHT22;3243;50.958;7.012;2023-05-09T12:20:08;22.70;99.90
6421;DHT22;3243;50.958;7.012;2023-05-09T12:25:07;22.70;99.90
6421;DHT22;3243;50.958;7.012;2023-05-09T12:27:36;22.60;99.90
6421;DHT22;3243;50.958;7.012;2023-05-09T12:30:04;22.60;99.90
6421;DHT22;3243;50.958;7.012;2023-05-09T12:32:36;22.70;99.90
6421;DHT22;3243;50.958;7.012;2023-05-09T12:35:08;22.80;99.90
6421;DHT22;3243;50.958;7.012;2023-05-09T12:37:36;22.90;99.90
6421;DHT22;3243;50.958;7.012;2023-05-09T12:40:09;22.90;99.90
6421;DHT22;3243;50.958;7.012;2023-05-09T12:42:44;22.80;99.90
6421;DHT22;3243;50.958;7.012;2023-05-09T12:45:12;22.60;99.90
6421;DHT22;3243;50.958;7.012;2023-05-09T12:47:39;22.40;99.90
6421;DHT22;3243;50.958;7.012;2023-05-09T12:50:09;22.50;99.90
6421;DHT22;3243;50.958;7.012;2023-05-09T12:52:38;22.80;99.90
6421;DHT22;3243;50.958;7.012;2023-05-09T12:55:25;23.10;99.90
6421;DHT22;3243;50.958;7.012;2023-05-09T12:58:01;23.30;99.90
6421;DHT22;3243;50.958;7.012;2023-05-09T13:00:43;23.40;99.90
6421;DHT22;3243;50.958;7.012;2023-05-09T13:03:25;23.50;99.90
6421;DHT22;3243;50.958;7.012;2023-05-09T13:06:03;23.50;99.90
6421;DHT22;3243;50.958;7.012;2023-05-09T13:11:00;23.70;99.90
6421;DHT22;3243;50.958;7.012;2023-05-09T13:13:41;23.80;99.90
6421;DHT22;3243;50.958;7.012;2023-05-09T13:16:08;23.70;99.90
6421;DHT22;3243;50.958;7.012;2023-05-09T13:18:38;23.70;99.90
6421;DHT22;3243;50.958;7.012;2023-05-09T13:25:59;23.80;99.90
6421;DHT22;3243;50.958;7.012;2023-05-09T13:30:53;23.90;99.90
6421;DHT22;3243;50.958;7.012;2023-05-09T13:35:52;24.10;99.90
6421;DHT22;3243;50.958;7.012;2023-05-09T13:40:46;24.00;99.90
6421;DHT22;3243;50.958;7.012;2023-05-09T13:45:40;23.90;99.90
6421;DHT22;3243;50.958;7.012;2023-05-09T13:53:01;23.70;99.90
6421;DHT22;3243;50.958;7.012;2023-05-09T13:55:28;23.50;99.90
6421;DHT22;3243;50.958;7.012;2023-05-09T13:57:56;23.40;99.90
6421;DHT22;3243;50.958;7.012;2023-05-09T14:02:52;23.40;99.90
6421;DHT22;3243;50.958;7.012;2023-05-09T14:05:19;23.50;99.90
6421;DHT22;3243;50.958;7.012;2023-05-09T14:10:13;23.30;99.90
6421;DHT22;3243;50.958;7.012;2023-05-09T14:15:10;23.20;99.90
6421;DHT22;3243;50.958;7.012;2023-05-09T14:17:37;23.00;99.90
6421;DHT22;3243;50.958;7.012;2023-05-09T14:22:31;22.90;99.90
6421;DHT22;3243;50.958;7.012;2023-05-09T14:27:25;22.60;99.90
6421;DHT22;3243;50.958;7.012;2023-05-09T14:29:52;22.50;99.90
6421;DHT22;3243;50.958;7.012;2023-05-09T14:32:19;22.30;99.90
6421;DHT22;3243;50.958;7.012;2023-05-09T14:34:46;21.80;99.90
6421;DHT22;3243;50.958;7.012;2023-05-09T14:39:43;20.80;99.90
6421;DHT22;3243;50.958;7.012;2023-05-09T14:42:11;20.40;99.90
6421;DHT22;3243;50.958;7.012;2023-05-09T14:44:40;20.40;99.90
6421;DHT22;3243;50.958;7.012;2023-05-09T14:47:10;20.40;99.90
6421;DHT22;3243;50.958;7.012;2023-05-09T14:49:37;20.20;99.90
6421;DHT22;3243;50.958;7.012;2023-05-09T14:52:05;19.90;99.90
6421;DHT22;3243;50.958;7.012;2023-05-09T14:59:30;19.20;99.90
6421;DHT22;3243;50.958;7.012;2023-05-09T15:04:24;18.80;99.90
6421;DHT22;3243;50.958;7.012;2023-05-09T15:14:19;18.90;99.90
6421;DHT22;3243;50.958;7.012;2023-05-09T15:16:46;18.80;99.90
6421;DHT22;3243;50.958;7.012;2023-05-09T15:19:13;18.80;99.90
6421;DHT22;3243;50.958;7.012;2023-05-09T15:24:07;18.80;99.90
6421;DHT22;3243;50.958;7.012;2023-05-09T15:26:34;18.80;99.90
6421;DHT22;3243;50.958;7.012;2023-05-09T15:31:31;18.60;99.90
6421;DHT22;3243;50.958;7.012;2023-05-09T15:33:59;18.60;99.90
6421;DHT22;3243;50.958;7.012;2023-05-09T15:36:27;18.50;99.90
6421;DHT22;3243;50.958;7.012;2023-05-09T15:38:55;18.60;99.90
6421;DHT22;3243;50.958;7.012;2023-05-09T15:43:48;18.50;99.90
6421;DHT22;3243;50.958;7.012;2023-05-09T15:46:15;18.40;99.90
6421;DHT22;3243;50.958;7.012;2023-05-09T15:51:09;18.30;99.90
6421;DHT22;3243;50.958;7.012;2023-05-09T15:53:36;18.20;99.90
6421;DHT22;3243;50.958;7.012;2023-05-09T15:56:04;18.30;99.90
6421;DHT22;3243;50.958;7.012;2023-05-09T15:58:31;18.20;99.90
6421;DHT22;3243;50.958;7.012;2023-05-09T16:00:58;18.30;99.90
6421;DHT22;3243;50.958;7.012;2023-05-09T16:05:52;18.30;99.90
6421;DHT22;3243;50.958;7.012;2023-05-09T16:10:46;18.10;99.90
6421;DHT22;3243;50.958;7.012;2023-05-09T16:13:14;18.20;99.90
6421;DHT22;3243;50.958;7.012;2023-05-09T16:15:43;18.10;99.90
6421;DHT22;3243;50.958;7.012;2023-05-09T16:25:34;18.00;99.90
6421;DHT22;3243;50.958;7.012;2023-05-09T16:28:01;18.00;99.90
6421;DHT22;3243;50.958;7.012;2023-05-09T16:37:50;17.90;99.90
6421;DHT22;3243;50.958;7.012;2023-05-09T16:40:17;17.80;99.90
6421;DHT22;3243;50.958;7.012;2023-05-09T16:50:06;17.50;99.90
6421;DHT22;3243;50.958;7.012;2023-05-09T16:59:54;17.60;99.90
6421;DHT22;3243;50.958;7.012;2023-05-09T17:14:46;17.60;99.90
6421;DHT22;3243;50.958;7.012;2023-05-09T17:17:14;17.40;99.90
6421;DHT22;3243;50.958;7.012;2023-05-09T17:19:40;17.40;99.90
6421;DHT22;3243;50.958;7.012;2023-05-09T17:27:03;17.30;99.90
6421;DHT22;3243;50.958;7.012;2023-05-09T17:31:57;17.30;99.90
6421;DHT22;3243;50.958;7.012;2023-05-09T17:34:27;17.20;99.90
6421;DHT22;3243;50.958;7.012;2023-05-09T17:36:54;17.20;99.90
6421;DHT22;3243;50.958;7.012;2023-05-09T17:39:22;17.10;99.90
6421;DHT22;3243;50.958;7.012;2023-05-09T17:44:16;17.00;99.90
6421;DHT22;3243;50.958;7.012;2023-05-09T17:49:10;16.90;99.90
6421;DHT22;3243;50.958;7.012;2023-05-09T17:59:01;16.90;99.90
6421;DHT22;3243;50.958;7.012;2023-05-09T18:03:55;16.80;99.90
6421;DHT22;3243;50.958;7.012;2023-05-09T18:06:22;16.70;99.90
6421;DHT22;3243;50.958;7.012;2023-05-09T18:08:49;16.70;99.90
6421;DHT22;3243;50.958;7.012;2023-05-09T18:13:43;16.60;99.90
6421;DHT22;3243;50.958;7.012;2023-05-09T18:18:37;16.60;99.90
6421;DHT22;3243;50.958;7.012;2023-05-09T18:21:04;16.60;99.90
6421;DHT22;3243;50.958;7.012;2023-05-09T18:30:57;16.50;99.90
6421;DHT22;3243;50.958;7.012;2023-05-09T18:33:25;16.40;99.90
6421;DHT22;3243;50.958;7.012;2023-05-09T18:35:53;16.50;99.90
6421;DHT22;3243;50.958;7.012;2023-05-09T18:38:20;16.50;99.90
6421;DHT22;3243;50.958;7.012;2023-05-09T18:40:48;16.20;99.90
6421;DHT22;3243;50.958;7.012;2023-05-09T18:43:17;16.10;99.90
6421;DHT22;3243;50.958;7.012;2023-05-09T18:48:14;16.00;99.90
6421;DHT22;3243;50.958;7.012;2023-05-09T18:50:42;15.90;99.90
6421;DHT22;3243;50.958;7.012;2023-05-09T18:53:08;15.80;99.90
6421;DHT22;3243;50.958;7.012;2023-05-09T19:02:57;15.60;99.90
6421;DHT22;3243;50.958;7.012;2023-05-09T19:05:24;15.60;99.90
6421;DHT22;3243;50.958;7.012;2023-05-09T19:10:19;15.40;99.90
6421;DHT22;3243;50.958;7.012;2023-05-09T19:17:41;15.40;99.90
6421;DHT22;3243;50.958;7.012;2023-05-09T19:20:09;15.40;99.90
6421;DHT22;3243;50.958;7.012;2023-05-09T19:25:06;15.30;99.90
6421;DHT22;3243;50.958;7.012;2023-05-09T19:30:02;14.90;99.90
6421;DHT22;3243;50.958;7.012;2023-05-09T19:37:24;14.60;99.90
6421;DHT22;3243;50.958;7.012;2023-05-09T19:42:18;14.40;99.90
6421;DHT22;3243;50.958;7.012;2023-05-09T19:44:45;14.30;99.90
6421;DHT22;3243;50.958;7.012;2023-05-09T19:49:39;14.20;99.90
6421;DHT22;3243;50.958;7.012;2023-05-09T19:59:31;14.10;99.90
6421;DHT22;3243;50.958;7.012;2023-05-09T20:06:53;13.90;99.90
6421;DHT22;3243;50.958;7.012;2023-05-09T20:16:41;13.90;99.90
6421;DHT22;3243;50.958;7.012;2023-05-09T20:19:12;13.90;99.90
6421;DHT22;3243;50.958;7.012;2023-05-09T20:21:39;13.90;99.90
6421;DHT22;3243;50.958;7.012;2023-05-09T20:26:35;13.90;99.90
6421;DHT22;3243;50.958;7.012;2023-05-09T20:29:01;13.90;99.90
6421;DHT22;3243;50.958;7.012;2023-05-09T20:31:29;13.90;99.90
6421;DHT22;3243;50.958;7.012;2023-05-09T20:36:25;13.80;99.90
6421;DHT22;3243;50.958;7.012;2023-05-09T20:38:53;13.80;99.90
6421;DHT22;3243;50.958;7.012;2023-05-09T20:43:49;13.80;99.90
6421;DHT22;3243;50.958;7.012;2023-05-09T20:53:37;13.70;99.90
6421;DHT22;3243;50.958;7.012;2023-05-09T20:58:32;13.60;99.90
6421;DHT22;3243;50.958;7.012;2023-05-09T21:00:59;13.50;99.90
6421;DHT22;3243;50.958;7.012;2023-05-09T21:03:26;13.50;99.90
6421;DHT22;3243;50.958;7.012;2023-05-09T21:08:20;13.60;99.90
6421;DHT22;3243;50.958;7.012;2023-05-09T21:10:50;13.60;99.90
6421;DHT22;3243;50.958;7.012;2023-05-09T21:15:48;13.60;99.90
6421;DHT22;3243;50.958;7.012;2023-05-09T21:20:42;13.60;99.90
6421;DHT22;3243;50.958;7.012;2023-05-09T21:32:59;13.70;99.90
6421;DHT22;3243;50.958;7.012;2023-05-09T21:42:47;13.70;99.90
6421;DHT22;3243;50.958;7.012;2023-05-09T21:50:09;13.60;99.90
6421;DHT22;3243;50.958;7.012;2023-05-09T21:55:03;13.60;99.90
6421;DHT22;3243;50.958;7.012;2023-05-09T21:57:30;13.60;99.90
6421;DHT22;3243;50.958;7.012;2023-05-09T22:02:27;13.60;99.90
6421;DHT22;3243;50.958;7.012;2023-05-09T22:07:22;13.60;99.90
6421;DHT22;3243;50.958;7.012;2023-05-09T22:17:24;13.70;99.90
6421;DHT22;3243;50.958;7.012;2023-05-09T22:24:45;13.70;99.90
6421;DHT22;3243;50.958;7.012;2023-05-09T22:27:12;13.70;99.90
6421;DHT22;3243;50.958;7.012;2023-05-09T22:32:06;13.60;99.90
6421;DHT22;3243;50.958;7.012;2023-05-09T22:34:34;13.70;99.90
6421;DHT22;3243;50.958;7.012;2023-05-09T22:37:01;13.60;99.90
6421;DHT22;3243;50.958;7.012;2023-05-09T22:46:50;13.60;99.90
6421;DHT22;3243;50.958;7.012;2023-05-09T22:54:11;13.70;99.90
6421;DHT22;3243;50.958;7.012;2023-05-09T22:59:05;13.70;99.90
6421;DHT22;3243;50.958;7.012;2023-05-09T23:01:31;13.60;99.90
6421;DHT22;3243;50.958;7.012;2023-05-09T23:06:25;13.70;99.90
6421;DHT22;3243;50.958;7.012;2023-05-09T23:08:52;13.70;99.90
6421;DHT22;3243;50.958;7.012;2023-05-09T23:11:19;13.70;99.90
6421;DHT22;3243;50.958;7.012;2023-05-09T23:13:47;13.60;99.90
6421;DHT22;3243;50.958;7.012;2023-05-09T23:16:14;13.60;99.90
6421;DHT22;3243;50.958;7.012;2023-05-09T23:18:42;13.60;99.90
6421;DHT22;3243;50.958;7.012;2023-05-09T23:21:09;13.60;99.90
6421;DHT22;3243;50.958;7.012;2023-05-09T23:23:36;13.60;99.90
6421;DHT22;3243;50.958;7.012;2023-05-09T23:28:30;13.60;99.90
6421;DHT22;3243;50.958;7.012;2023-05-09T23:30:56;13.60;99.90
6421;DHT22;3243;50.958;7.012;2023-05-09T23:35:50;13.60;99.90
6421;DHT22;3243;50.958;7.012;2023-05-09T23:40:45;13.60;99.90
6421;DHT22;3243;50.958;7.012;2023-05-09T23:43:12;13.60;99.90
6421;DHT22;3243;50.958;7.012;2023-05-09T23:45:39;13.60;99.90
6421;DHT22;3243;50.958;7.012;2023-05-09T23:50:33;13.60;99.90
6421;DHT22;3243;50.958;7.012;2023-05-09T23:55:30;13.60;99.90
6421;DHT22;3243;50.958;7.012;2023-05-09T23:57:57;13.60;99.90
